sensor_id;sensor_type;location;lat;lon;timestamp;P1;P2;P0
59179;PMS7003;44956;52.422;20.818;2023-04-15T00:01:30;25.50;25.50;16.50
59179;PMS7003;44956;52.422;20.818;2023-04-15T00:04:35;29.25;28.50;18.00
59179;PMS7003;44956;52.422;20.818;2023-04-15T00:07:38;31.25;28.75;16.00
59179;PMS7003;44956;52.422;20.818;2023-04-15T00:10:41;26.75;25.50;18.00
59179;PMS7003;44956;52.422;20.818;2023-04-15T00:13:45;24.25;23.50;15.50
59179;PMS7003;44956;52.422;20.818;2023-04-15T00:16:47;30.00;26.50;16.25
59179;PMS7003;44956;52.422;20.818;2023-04-15T00:19:57;30.00;25.00;17.75
59179;PMS7003;44956;52.422;20.818;2023-04-15T00:23:01;31.50;26.50;18.75
59179;PMS7003;44956;52.422;20.818;2023-04-15T00:26:05;29.25;25.50;17.00
59179;PMS7003;44956;52.422;20.818;2023-04-15T00:29:08;29.50;26.25;16.50
59179;PMS7003;44956;52.422;20.818;2023-04-15T00:32:11;28.50;25.50;16.00
59179;PMS7003;44956;52.422;20.818;2023-04-15T00:35:14;29.75;29.00;16.00
59179;PMS7003;44956;52.422;20.818;2023-04-15T00:38:17;19.50;17.00;13.00
59179;PMS7003;44956;52.422;20.818;2023-04-15T00:41:20;27.50;26.00;15.00
59179;PMS7003;44956;52.422;20.818;2023-04-15T00:44:24;26.50;26.50;15.75
59179;PMS7003;44956;52.422;20.818;2023-04-15T00:47:27;24.50;24.25;15.00
59179;PMS7003;44956;52.422;20.818;2023-04-15T00:50:31;33.50;26.75;15.75
59179;PMS7003;44956;52.422;20.818;2023-04-15T00:53:34;26.25;25.00;15.25
59179;PMS7003;44956;52.422;20.818;2023-04-15T00:56:37;25.50;25.25;18.25
59179;PMS7003;44956;52.422;20.818;2023-04-15T00:59:40;26.50;25.00;16.00
59179;PMS7003;44956;52.422;20.818;2023-04-15T01:02:42;26.00;26.00;16.75
59179;PMS7003;44956;52.422;20.818;2023-04-15T01:05:45;29.75;26.50;17.00
59179;PMS7003;44956;52.422;20.818;2023-04-15T01:08:48;32.25;27.50;17.00
59179;PMS7003;44956;52.422;20.818;2023-04-15T01:11:51;28.50;26.25;17.00
59179;PMS7003;44956;52.422;20.818;2023-04-15T01:14:54;30.75;26.00;16.25
59179;PMS7003;44956;52.422;20.818;2023-04-15T01:17:58;27.75;26.50;16.25
59179;PMS7003;44956;52.422;20.818;2023-04-15T01:21:01;29.25;26.00;18.75
59179;PMS7003;44956;52.422;20.818;2023-04-15T01:24:08;30.00;28.75;16.75
59179;PMS7003;44956;52.422;20.818;2023-04-15T01:27:11;30.50;28.75;17.00
59179;PMS7003;44956;52.422;20.818;2023-04-15T01:30:14;30.50;27.25;16.50
59179;PMS7003;44956;52.422;20.818;2023-04-15T01:33:17;28.50;25.25;15.50
59179;PMS7003;44956;52.422;20.818;2023-04-15T01:36:20;29.75;26.00;14.50
59179;PMS7003;44956;52.422;20.818;2023-04-15T01:39:28;30.00;28.75;20.75
59179;PMS7003;44956;52.422;20.818;2023-04-15T01:42:30;33.00;31.50;17.25
59179;PMS7003;44956;52.422;20.818;2023-04-15T01:45:34;18.25;18.25;10.25
59179;PMS7003;44956;52.422;20.818;2023-04-15T01:48:38;26.50;25.50;17.25
59179;PMS7003;44956;52.422;20.818;2023-04-15T01:51:40;29.50;29.00;17.00
59179;PMS7003;44956;52.422;20.818;2023-04-15T01:54:43;34.00;31.00;20.25
59179;PMS7003;44956;52.422;20.818;2023-04-15T01:57:46;29.25;27.75;19.00
59179;PMS7003;44956;52.422;20.818;2023-04-15T02:00:48;37.50;34.25;21.00
59179;PMS7003;44956;52.422;20.818;2023-04-15T02:03:51;28.75;25.25;17.25
59179;PMS7003;44956;52.422;20.818;2023-04-15T02:06:54;33.75;33.75;21.75
59179;PMS7003;44956;52.422;20.818;2023-04-15T02:09:56;37.75;34.75;21.50
59179;PMS7003;44956;52.422;20.818;2023-04-15T02:12:59;31.50;28.00;16.00
59179;PMS7003;44956;52.422;20.818;2023-04-15T02:16:02;27.50;25.50;19.75
59179;PMS7003;44956;52.422;20.818;2023-04-15T02:19:07;38.25;33.75;20.25
59179;PMS7003;44956;52.422;20.818;2023-04-15T02:22:11;40.25;35.75;20.75
59179;PMS7003;44956;52.422;20.818;2023-04-15T02:25:20;37.25;32.25;20.00
59179;PMS7003;44956;52.422;20.818;2023-04-15T02:28:23;34.25;30.50;17.00
59179;PMS7003;44956;52.422;20.818;2023-04-15T02:31:25;37.25;29.00;19.00
59179;PMS7003;44956;52.422;20.818;2023-04-15T02:34:28;34.00;33.75;23.50
59179;PMS7003;44956;52.422;20.818;2023-04-15T02:37:31;27.25;26.75;20.00
59179;PMS7003;44956;52.422;20.818;2023-04-15T02:40:37;37.75;30.25;18.75
59179;PMS7003;44956;52.422;20.818;2023-04-15T02:43:41;35.50;31.50;20.00
59179;PMS7003;44956;52.422;20.818;2023-04-15T02:46:43;38.75;32.50;22.50
59179;PMS7003;44956;52.422;20.818;2023-04-15T02:49:49;36.75;33.00;19.50
59179;PMS7003;44956;52.422;20.818;2023-04-15T02:52:52;36.75;32.75;20.50
59179;PMS7003;44956;52.422;20.818;2023-04-15T02:55:54;39.75;35.00;20.00
59179;PMS7003;44956;52.422;20.818;2023-04-15T02:58:58;38.00;33.25;19.25
59179;PMS7003;44956;52.422;20.818;2023-04-15T03:02:01;31.25;30.75;21.25
59179;PMS7003;44956;52.422;20.818;2023-04-15T03:05:04;37.75;36.75;21.00
59179;PMS7003;44956;52.422;20.818;2023-04-15T03:08:07;42.75;37.00;20.50
59179;PMS7003;44956;52.422;20.818;2023-04-15T03:11:10;36.00;34.25;21.00
59179;PMS7003;44956;52.422;20.818;2023-04-15T03:14:13;38.75;32.75;21.00
59179;PMS7003;44956;52.422;20.818;2023-04-15T03:17:20;32.25;27.75;19.75
59179;PMS7003;44956;52.422;20.818;2023-04-15T03:20:23;45.50;38.00;23.75
59179;PMS7003;44956;52.422;20.818;2023-04-15T03:23:26;42.75;37.75;24.50
59179;PMS7003;44956;52.422;20.818;2023-04-15T03:26:30;38.50;35.50;22.75
59179;PMS7003;44956;52.422;20.818;2023-04-15T03:29:36;44.25;37.00;23.25
59179;PMS7003;44956;52.422;20.818;2023-04-15T03:32:39;35.75;33.25;22.00
59179;PMS7003;44956;52.422;20.818;2023-04-15T03:35:42;34.50;33.50;20.50
59179;PMS7003;44956;52.422;20.818;2023-04-15T03:38:45;38.25;33.50;23.00
59179;PMS7003;44956;52.422;20.818;2023-04-15T03:41:48;37.50;35.25;22.00
59179;PMS7003;44956;52.422;20.818;2023-04-15T03:44:50;36.75;32.75;20.25
59179;PMS7003;44956;52.422;20.818;2023-04-15T03:47:53;37.00;36.75;22.00
59179;PMS7003;44956;52.422;20.818;2023-04-15T03:50:55;35.00;30.75;20.00
59179;PMS7003;44956;52.422;20.818;2023-04-15T03:53:58;41.75;34.00;22.00
59179;PMS7003;44956;52.422;20.818;2023-04-15T03:57:00;37.25;36.50;23.00
59179;PMS7003;44956;52.422;20.818;2023-04-15T04:00:04;36.50;32.50;19.25
59179;PMS7003;44956;52.422;20.818;2023-04-15T04:03:12;35.75;32.50;18.50
59179;PMS7003;44956;52.422;20.818;2023-04-15T04:06:15;38.50;33.75;23.25
59179;PMS7003;44956;52.422;20.818;2023-04-15T04:09:17;33.50;31.25;19.50
59179;PMS7003;44956;52.422;20.818;2023-04-15T04:12:20;38.25;33.75;20.50
59179;PMS7003;44956;52.422;20.818;2023-04-15T04:15:23;31.25;29.75;19.00
59179;PMS7003;44956;52.422;20.818;2023-04-15T04:18:26;36.00;32.50;20.00
59179;PMS7003;44956;52.422;20.818;2023-04-15T04:21:28;29.50;29.00;17.25
59179;PMS7003;44956;52.422;20.818;2023-04-15T04:24:31;32.25;29.75;17.00
59179;PMS7003;44956;52.422;20.818;2023-04-15T04:27:33;38.25;32.00;20.00
59179;PMS7003;44956;52.422;20.818;2023-04-15T04:30:36;38.00;34.75;19.75
59179;PMS7003;44956;52.422;20.818;2023-04-15T04:33:39;34.25;34.25;19.50
59179;PMS7003;44956;52.422;20.818;2023-04-15T04:36:42;38.25;33.50;17.50
59179;PMS7003;44956;52.422;20.818;2023-04-15T04:39:44;32.25;28.50;18.50
59179;PMS7003;44956;52.422;20.818;2023-04-15T04:42:47;33.00;29.00;18.00
59179;PMS7003;44956;52.422;20.818;2023-04-15T04:45:49;29.00;27.75;16.25
59179;PMS7003;44956;52.422;20.818;2023-04-15T04:48:52;33.50;27.00;19.00
59179;PMS7003;44956;52.422;20.818;2023-04-15T04:51:54;37.50;29.75;18.00
59179;PMS7003;44956;52.422;20.818;2023-04-15T04:54:57;34.00;32.50;20.75
59179;PMS7003;44956;52.422;20.818;2023-04-15T04:58:00;39.75;32.50;19.00
59179;PMS7003;44956;52.422;20.818;2023-04-15T05:01:02;30.50;29.25;19.75
59179;PMS7003;44956;52.422;20.818;2023-04-15T05:04:07;32.00;30.25;19.50
59179;PMS7003;44956;52.422;20.818;2023-04-15T05:07:10;33.50;31.00;20.00
59179;PMS7003;44956;52.422;20.818;2023-04-15T05:10:13;31.25;29.00;19.00
59179;PMS7003;44956;52.422;20.818;2023-04-15T05:13:16;31.50;31.25;19.25
59179;PMS7003;44956;52.422;20.818;2023-04-15T05:16:19;36.75;33.25;18.75
59179;PMS7003;44956;52.422;20.818;2023-04-15T05:19:22;26.75;25.00;14.75
59179;PMS7003;44956;52.422;20.818;2023-04-15T05:22:24;28.25;25.75;19.50
59179;PMS7003;44956;52.422;20.818;2023-04-15T05:25:27;36.75;34.25;20.00
59179;PMS7003;44956;52.422;20.818;2023-04-15T05:28:29;32.75;28.25;17.25
59179;PMS7003;44956;52.422;20.818;2023-04-15T05:31:32;33.25;32.75;21.00
59179;PMS7003;44956;52.422;20.818;2023-04-15T05:34:35;30.25;29.00;20.00
59179;PMS7003;44956;52.422;20.818;2023-04-15T05:37:38;32.75;30.00;18.00
59179;PMS7003;44956;52.422;20.818;2023-04-15T05:40:41;32.00;29.00;18.00
59179;PMS7003;44956;52.422;20.818;2023-04-15T05:43:44;29.00;27.00;16.25
59179;PMS7003;44956;52.422;20.818;2023-04-15T05:46:46;31.00;28.25;17.75
59179;PMS7003;44956;52.422;20.818;2023-04-15T05:49:49;33.50;31.00;20.50
59179;PMS7003;44956;52.422;20.818;2023-04-15T05:52:52;34.00;33.75;19.75
59179;PMS7003;44956;52.422;20.818;2023-04-15T05:55:55;39.75;36.75;23.00
59179;PMS7003;44956;52.422;20.818;2023-04-15T05:58:58;36.25;32.75;22.00
59179;PMS7003;44956;52.422;20.818;2023-04-15T06:02:01;36.00;32.25;19.00
59179;PMS7003;44956;52.422;20.818;2023-04-15T06:05:04;32.50;32.00;20.00
59179;PMS7003;44956;52.422;20.818;2023-04-15T06:08:11;32.75;32.25;19.25
59179;PMS7003;44956;52.422;20.818;2023-04-15T06:11:13;37.00;30.50;18.50
59179;PMS7003;44956;52.422;20.818;2023-04-15T06:14:16;30.75;29.25;18.50
59179;PMS7003;44956;52.422;20.818;2023-04-15T06:17:18;32.50;27.75;18.75
59179;PMS7003;44956;52.422;20.818;2023-04-15T06:20:21;32.25;27.75;17.75
59179;PMS7003;44956;52.422;20.818;2023-04-15T06:23:24;35.50;30.75;19.00
59179;PMS7003;44956;52.422;20.818;2023-04-15T06:26:29;35.25;32.25;20.50
59179;PMS7003;44956;52.422;20.818;2023-04-15T06:29:32;27.75;25.50;15.50
59179;PMS7003;44956;52.422;20.818;2023-04-15T06:32:35;31.25;29.50;19.25
59179;PMS7003;44956;52.422;20.818;2023-04-15T06:35:37;30.25;27.50;16.25
59179;PMS7003;44956;52.422;20.818;2023-04-15T06:38:41;34.25;29.00;17.75
59179;PMS7003;44956;52.422;20.818;2023-04-15T06:41:43;26.75;26.75;15.75
59179;PMS7003;44956;52.422;20.818;2023-04-15T06:44:46;35.50;32.25;19.25
59179;PMS7003;44956;52.422;20.818;2023-04-15T06:47:49;35.50;32.00;18.50
59179;PMS7003;44956;52.422;20.818;2023-04-15T06:50:51;37.00;30.50;18.00
59179;PMS7003;44956;52.422;20.818;2023-04-15T06:53:54;29.00;24.75;17.50
59179;PMS7003;44956;52.422;20.818;2023-04-15T06:56:58;26.00;23.25;16.50
59179;PMS7003;44956;52.422;20.818;2023-04-15T07:00:00;30.00;26.00;17.50
59179;PMS7003;44956;52.422;20.818;2023-04-15T07:03:03;36.25;31.75;18.75
59179;PMS7003;44956;52.422;20.818;2023-04-15T07:06:06;28.75;26.50;18.00
59179;PMS7003;44956;52.422;20.818;2023-04-15T07:09:10;32.50;29.50;19.00
59179;PMS7003;44956;52.422;20.818;2023-04-15T07:12:13;31.75;28.00;19.00
59179;PMS7003;44956;52.422;20.818;2023-04-15T07:15:15;29.00;28.00;19.00
59179;PMS7003;44956;52.422;20.818;2023-04-15T07:18:18;28.00;28.00;17.50
59179;PMS7003;44956;52.422;20.818;2023-04-15T07:21:21;26.75;23.25;14.25
59179;PMS7003;44956;52.422;20.818;2023-04-15T07:24:23;26.50;25.50;17.25
59179;PMS7003;44956;52.422;20.818;2023-04-15T07:27:28;33.25;31.75;17.50
59179;PMS7003;44956;52.422;20.818;2023-04-15T07:30:30;31.00;29.00;16.25
59179;PMS7003;44956;52.422;20.818;2023-04-15T07:33:33;28.00;26.50;16.25
59179;PMS7003;44956;52.422;20.818;2023-04-15T07:36:35;25.25;23.00;14.00
59179;PMS7003;44956;52.422;20.818;2023-04-15T07:39:38;36.50;31.50;20.00
59179;PMS7003;44956;52.422;20.818;2023-04-15T07:42:40;27.50;21.25;12.00
59179;PMS7003;44956;52.422;20.818;2023-04-15T07:45:44;23.75;20.00;13.00
59179;PMS7003;44956;52.422;20.818;2023-04-15T07:48:47;22.25;20.00;12.75
59179;PMS7003;44956;52.422;20.818;2023-04-15T07:51:50;36.75;27.00;16.50
59179;PMS7003;44956;52.422;20.818;2023-04-15T07:54:53;23.75;23.75;15.00
59179;PMS7003;44956;52.422;20.818;2023-04-15T07:57:56;20.75;20.50;13.75
59179;PMS7003;44956;52.422;20.818;2023-04-15T08:00:58;24.00;24.00;14.00
59179;PMS7003;44956;52.422;20.818;2023-04-15T08:04:01;22.00;19.75;12.50
59179;PMS7003;44956;52.422;20.818;2023-04-15T08:07:04;26.50;22.50;14.00
59179;PMS7003;44956;52.422;20.818;2023-04-15T08:10:08;28.25;25.50;14.75
59179;PMS7003;44956;52.422;20.818;2023-04-15T08:13:11;24.00;23.50;12.25
59179;PMS7003;44956;52.422;20.818;2023-04-15T08:16:21;22.25;19.75;11.00
59179;PMS7003;44956;52.422;20.818;2023-04-15T08:19:25;16.75;16.75;10.00
59179;PMS7003;44956;52.422;20.818;2023-04-15T08:22:29;22.25;19.25;12.00
59179;PMS7003;44956;52.422;20.818;2023-04-15T08:25:31;21.75;19.00;12.00
59179;PMS7003;44956;52.422;20.818;2023-04-15T08:28:35;19.00;19.00;12.50
59179;PMS7003;44956;52.422;20.818;2023-04-15T08:31:41;19.25;19.25;11.00
59179;PMS7003;44956;52.422;20.818;2023-04-15T08:34:45;23.25;22.00;11.25
59179;PMS7003;44956;52.422;20.818;2023-04-15T08:37:47;17.75;17.25;10.25
59179;PMS7003;44956;52.422;20.818;2023-04-15T08:40:50;20.25;19.00;11.50
59179;PMS7003;44956;52.422;20.818;2023-04-15T08:43:57;16.25;15.50;11.00
59179;PMS7003;44956;52.422;20.818;2023-04-15T08:47:07;20.25;19.25;11.00
59179;PMS7003;44956;52.422;20.818;2023-04-15T08:50:10;19.75;17.25;11.00
59179;PMS7003;44956;52.422;20.818;2023-04-15T08:53:14;22.00;19.25;11.00
59179;PMS7003;44956;52.422;20.818;2023-04-15T08:56:17;17.25;17.25;10.25
59179;PMS7003;44956;52.422;20.818;2023-04-15T08:59:21;12.75;11.25;8.75
59179;PMS7003;44956;52.422;20.818;2023-04-15T09:02:23;19.00;19.00;10.25
59179;PMS7003;44956;52.422;20.818;2023-04-15T09:05:30;19.00;18.00;11.00
59179;PMS7003;44956;52.422;20.818;2023-04-15T09:08:34;18.25;16.25;11.00
59179;PMS7003;44956;52.422;20.818;2023-04-15T09:11:38;25.00;19.75;12.75
59179;PMS7003;44956;52.422;20.818;2023-04-15T09:14:42;20.25;19.25;12.00
59179;PMS7003;44956;52.422;20.818;2023-04-15T09:17:47;15.75;14.25;10.25
59179;PMS7003;44956;52.422;20.818;2023-04-15T09:20:50;24.50;19.50;10.75
59179;PMS7003;44956;52.422;20.818;2023-04-15T09:23:59;15.25;14.50;8.00
59179;PMS7003;44956;52.422;20.818;2023-04-15T09:27:04;18.75;16.25;11.00
59179;PMS7003;44956;52.422;20.818;2023-04-15T09:30:08;20.50;18.50;10.75
59179;PMS7003;44956;52.422;20.818;2023-04-15T09:33:13;16.00;14.75;10.25
59179;PMS7003;44956;52.422;20.818;2023-04-15T09:36:16;17.50;17.25;11.00
59179;PMS7003;44956;52.422;20.818;2023-04-15T09:39:19;0.00;0.00;0.00
59179;PMS7003;44956;52.422;20.818;2023-04-15T09:42:22;21.00;19.00;12.00
59179;PMS7003;44956;52.422;20.818;2023-04-15T09:45:28;12.25;12.00;8.25
59179;PMS7003;44956;52.422;20.818;2023-04-15T09:48:31;15.25;14.75;10.25
59179;PMS7003;44956;52.422;20.818;2023-04-15T09:51:35;16.00;16.00;10.00
59179;PMS7003;44956;52.422;20.818;2023-04-15T09:54:39;15.50;15.50;11.00
59179;PMS7003;44956;52.422;20.818;2023-04-15T09:57:43;19.50;16.00;10.75
59179;PMS7003;44956;52.422;20.818;2023-04-15T10:00:49;14.75;14.75;10.75
59179;PMS7003;44956;52.422;20.818;2023-04-15T10:03:52;18.50;14.25;8.00
59179;PMS7003;44956;52.422;20.818;2023-04-15T10:06:58;15.75;15.75;9.00
59179;PMS7003;44956;52.422;20.818;2023-04-15T10:10:03;15.50;15.50;10.25
59179;PMS7003;44956;52.422;20.818;2023-04-15T10:13:07;20.50;13.75;7.50
59179;PMS7003;44956;52.422;20.818;2023-04-15T10:16:12;15.00;14.00;8.75
59179;PMS7003;44956;52.422;20.818;2023-04-15T10:19:17;17.25;16.75;10.00
59179;PMS7003;44956;52.422;20.818;2023-04-15T10:22:24;16.75;16.75;10.75
59179;PMS7003;44956;52.422;20.818;2023-04-15T10:25:28;14.50;12.25;9.50
59179;PMS7003;44956;52.422;20.818;2023-04-15T10:28:32;13.50;13.50;8.00
59179;PMS7003;44956;52.422;20.818;2023-04-15T10:31:35;20.25;18.25;11.50
59179;PMS7003;44956;52.422;20.818;2023-04-15T10:34:41;15.75;15.00;8.50
59179;PMS7003;44956;52.422;20.818;2023-04-15T10:37:44;16.75;15.00;10.00
59179;PMS7003;44956;52.422;20.818;2023-04-15T10:40:47;15.50;14.50;8.00
59179;PMS7003;44956;52.422;20.818;2023-04-15T10:43:52;16.00;12.25;7.25
59179;PMS7003;44956;52.422;20.818;2023-04-15T10:46:57;15.50;14.00;8.50
59179;PMS7003;44956;52.422;20.818;2023-04-15T10:50:00;13.75;13.00;8.00
59179;PMS7003;44956;52.422;20.818;2023-04-15T10:53:04;15.00;15.00;8.00
59179;PMS7003;44956;52.422;20.818;2023-04-15T10:56:07;13.50;13.50;7.75
59179;PMS7003;44956;52.422;20.818;2023-04-15T10:59:11;13.00;13.00;8.00
59179;PMS7003;44956;52.422;20.818;2023-04-15T11:02:14;16.50;13.75;9.00
59179;PMS7003;44956;52.422;20.818;2023-04-15T11:05:18;13.00;13.00;8.00
59179;PMS7003;44956;52.422;20.818;2023-04-15T11:08:52;18.75;17.00;10.50
59179;PMS7003;44956;52.422;20.818;2023-04-15T11:18:53;12.25;10.75;6.50
59179;PMS7003;44956;52.422;20.818;2023-04-15T11:21:57;12.25;12.25;8.00
59179;PMS7003;44956;52.422;20.818;2023-04-15T11:25:08;15.50;13.75;11.00
59179;PMS7003;44956;52.422;20.818;2023-04-15T11:28:11;15.00;12.75;7.75
59179;PMS7003;44956;52.422;20.818;2023-04-15T11:31:15;15.25;13.50;9.75
59179;PMS7003;44956;52.422;20.818;2023-04-15T11:34:22;17.00;15.00;10.00
59179;PMS7003;44956;52.422;20.818;2023-04-15T11:37:28;18.25;15.75;7.75
59179;PMS7003;44956;52.422;20.818;2023-04-15T11:40:31;16.50;15.50;10.00
59179;PMS7003;44956;52.422;20.818;2023-04-15T11:43:34;15.50;15.50;8.25
59179;PMS7003;44956;52.422;20.818;2023-04-15T11:46:37;16.75;15.75;9.75
59179;PMS7003;44956;52.422;20.818;2023-04-15T11:49:40;11.50;11.50;7.75
59179;PMS7003;44956;52.422;20.818;2023-04-15T11:52:56;13.00;12.50;9.00
59179;PMS7003;44956;52.422;20.818;2023-04-15T11:55:58;11.00;10.00;6.00
59179;PMS7003;44956;52.422;20.818;2023-04-15T11:59:02;13.00;12.50;7.75
59179;PMS7003;44956;52.422;20.818;2023-04-15T12:02:11;11.00;11.00;9.75
59179;PMS7003;44956;52.422;20.818;2023-04-15T12:05:15;15.00;15.00;8.00
59179;PMS7003;44956;52.422;20.818;2023-04-15T12:08:18;16.00;13.25;8.00
59179;PMS7003;44956;52.422;20.818;2023-04-15T12:14:50;13.00;13.00;7.25
59179;PMS7003;44956;52.422;20.818;2023-04-15T12:17:53;11.25;11.25;8.00
59179;PMS7003;44956;52.422;20.818;2023-04-15T12:21:03;12.75;11.00;8.00
59179;PMS7003;44956;52.422;20.818;2023-04-15T12:24:11;12.00;11.25;7.50
59179;PMS7003;44956;52.422;20.818;2023-04-15T12:27:15;14.25;12.00;8.00
59179;PMS7003;44956;52.422;20.818;2023-04-15T12:30:18;12.50;12.50;7.75
59179;PMS7003;44956;52.422;20.818;2023-04-15T12:33:21;13.50;12.00;8.75
59179;PMS7003;44956;52.422;20.818;2023-04-15T12:36:24;15.75;15.75;8.25
59179;PMS7003;44956;52.422;20.818;2023-04-15T12:39:35;12.50;11.00;7.75
59179;PMS7003;44956;52.422;20.818;2023-04-15T12:42:39;11.00;9.00;5.50
59179;PMS7003;44956;52.422;20.818;2023-04-15T12:45:43;11.25;11.25;7.75
59179;PMS7003;44956;52.422;20.818;2023-04-15T12:48:46;12.00;11.00;7.00
59179;PMS7003;44956;52.422;20.818;2023-04-15T12:51:49;15.00;10.50;6.75
59179;PMS7003;44956;52.422;20.818;2023-04-15T12:54:53;10.50;10.50;6.00
59179;PMS7003;44956;52.422;20.818;2023-04-15T12:57:57;9.25;7.50;6.00
59179;PMS7003;44956;52.422;20.818;2023-04-15T13:00:59;9.25;8.00;6.00
59179;PMS7003;44956;52.422;20.818;2023-04-15T13:04:15;8.25;7.25;4.50
59179;PMS7003;44956;52.422;20.818;2023-04-15T13:07:18;11.25;8.00;6.00
59179;PMS7003;44956;52.422;20.818;2023-04-15T13:10:25;10.75;8.00;6.00
59179;PMS7003;44956;52.422;20.818;2023-04-15T13:13:43;8.75;8.75;6.00
59179;PMS7003;44956;52.422;20.818;2023-04-15T13:16:46;10.25;10.00;7.00
59179;PMS7003;44956;52.422;20.818;2023-04-15T13:19:49;8.00;8.00;6.00
59179;PMS7003;44956;52.422;20.818;2023-04-15T13:22:52;8.00;8.00;6.00
59179;PMS7003;44956;52.422;20.818;2023-04-15T13:25:55;10.50;10.00;5.75
59179;PMS7003;44956;52.422;20.818;2023-04-15T13:28:58;10.75;9.25;6.00
59179;PMS7003;44956;52.422;20.818;2023-04-15T13:32:01;11.50;11.50;7.00
59179;PMS7003;44956;52.422;20.818;2023-04-15T13:35:05;8.25;8.25;6.00
59179;PMS7003;44956;52.422;20.818;2023-04-15T13:38:08;10.50;10.50;7.00
59179;PMS7003;44956;52.422;20.818;2023-04-15T13:41:11;10.75;10.75;6.25
59179;PMS7003;44956;52.422;20.818;2023-04-15T13:44:14;11.00;9.50;6.00
59179;PMS7003;44956;52.422;20.818;2023-04-15T13:47:20;12.25;11.00;7.00
59179;PMS7003;44956;52.422;20.818;2023-04-15T13:50:23;10.50;9.50;5.00
59179;PMS7003;44956;52.422;20.818;2023-04-15T13:53:27;8.50;7.25;3.50
59179;PMS7003;44956;52.422;20.818;2023-04-15T13:56:39;7.25;5.75;2.00
59179;PMS7003;44956;52.422;20.818;2023-04-15T13:59:42;8.00;4.00;1.00
59179;PMS7003;44956;52.422;20.818;2023-04-15T14:02:45;5.00;5.00;2.50
59179;PMS7003;44956;52.422;20.818;2023-04-15T14:05:48;6.00;5.00;2.50
59179;PMS7003;44956;52.422;20.818;2023-04-15T14:08:57;6.00;5.25;2.25
59179;PMS7003;44956;52.422;20.818;2023-04-15T14:12:00;6.25;6.25;3.00
59179;PMS7003;44956;52.422;20.818;2023-04-15T14:15:03;5.50;5.00;3.00
59179;PMS7003;44956;52.422;20.818;2023-04-15T14:18:07;8.00;7.00;5.00
59179;PMS7003;44956;52.422;20.818;2023-04-15T14:21:09;2.75;2.00;1.00
59179;PMS7003;44956;52.422;20.818;2023-04-15T14:24:12;7.75;7.00;6.00
59179;PMS7003;44956;52.422;20.818;2023-04-15T14:27:15;8.00;8.00;5.00
59179;PMS7003;44956;52.422;20.818;2023-04-15T14:30:19;7.75;7.75;6.00
59179;PMS7003;44956;52.422;20.818;2023-04-15T14:33:22;9.75;9.75;6.00
59179;PMS7003;44956;52.422;20.818;2023-04-15T14:36:26;10.75;10.00;6.00
59179;PMS7003;44956;52.422;20.818;2023-04-15T14:39:28;11.75;10.00;6.75
59179;PMS7003;44956;52.422;20.818;2023-04-15T14:42:31;12.00;10.75;7.00
59179;PMS7003;44956;52.422;20.818;2023-04-15T14:45:34;10.25;7.75;5.25
59179;PMS7003;44956;52.422;20.818;2023-04-15T14:48:39;7.50;6.75;4.50
59179;PMS7003;44956;52.422;20.818;2023-04-15T14:51:42;7.50;7.50;6.00
59179;PMS7003;44956;52.422;20.818;2023-04-15T14:54:45;7.00;6.00;5.00
59179;PMS7003;44956;52.422;20.818;2023-04-15T14:57:48;7.50;7.50;5.00
59179;PMS7003;44956;52.422;20.818;2023-04-15T15:00:51;9.50;8.00;4.50
59179;PMS7003;44956;52.422;20.818;2023-04-15T15:03:54;9.75;9.00;5.50
59179;PMS7003;44956;52.422;20.818;2023-04-15T15:06:58;11.25;7.75;5.00
59179;PMS7003;44956;52.422;20.818;2023-04-15T15:10:01;15.50;10.00;6.00
59179;PMS7003;44956;52.422;20.818;2023-04-15T15:13:05;9.00;8.00;5.00
59179;PMS7003;44956;52.422;20.818;2023-04-15T15:16:08;6.75;6.75;3.50
59179;PMS7003;44956;52.422;20.818;2023-04-15T15:19:15;7.25;6.00;3.50
59179;PMS7003;44956;52.422;20.818;2023-04-15T15:22:18;9.75;6.75;5.00
59179;PMS7003;44956;52.422;20.818;2023-04-15T15:25:22;10.50;7.50;5.00
59179;PMS7003;44956;52.422;20.818;2023-04-15T15:28:25;7.75;7.50;5.00
59179;PMS7003;44956;52.422;20.818;2023-04-15T15:31:29;7.00;5.00;2.25
59179;PMS7003;44956;52.422;20.818;2023-04-15T15:34:32;7.50;7.50;5.25
59179;PMS7003;44956;52.422;20.818;2023-04-15T15:37:35;10.00;8.00;5.00
59179;PMS7003;44956;52.422;20.818;2023-04-15T15:40:38;7.50;7.50;4.50
59179;PMS7003;44956;52.422;20.818;2023-04-15T15:43:41;6.25;6.00;3.25
59179;PMS7003;44956;52.422;20.818;2023-04-15T15:46:44;7.00;7.00;6.00
59179;PMS7003;44956;52.422;20.818;2023-04-15T15:49:47;7.25;7.00;5.00
59179;PMS7003;44956;52.422;20.818;2023-04-15T15:52:50;10.00;7.25;5.00
59179;PMS7003;44956;52.422;20.818;2023-04-15T15:55:53;7.00;7.00;6.00
59179;PMS7003;44956;52.422;20.818;2023-04-15T15:58:56;5.50;5.00;3.00
59179;PMS7003;44956;52.422;20.818;2023-04-15T16:02:04;9.75;8.50;5.00
59179;PMS7003;44956;52.422;20.818;2023-04-15T16:05:08;7.00;6.00;5.00
59179;PMS7003;44956;52.422;20.818;2023-04-15T16:08:11;11.50;8.00;5.00
59179;PMS7003;44956;52.422;20.818;2023-04-15T16:11:14;8.00;8.00;5.00
59179;PMS7003;44956;52.422;20.818;2023-04-15T16:14:17;7.75;7.00;3.00
59179;PMS7003;44956;52.422;20.818;2023-04-15T16:17:21;6.25;6.25;4.00
59179;PMS7003;44956;52.422;20.818;2023-04-15T16:20:25;7.00;7.00;5.00
59179;PMS7003;44956;52.422;20.818;2023-04-15T16:23:29;7.50;7.00;5.00
59179;PMS7003;44956;52.422;20.818;2023-04-15T16:26:32;7.00;6.75;5.00
59179;PMS7003;44956;52.422;20.818;2023-04-15T16:29:35;7.00;7.00;5.00
59179;PMS7003;44956;52.422;20.818;2023-04-15T16:32:39;7.25;6.00;3.00
59179;PMS7003;44956;52.422;20.818;2023-04-15T16:35:44;6.25;5.75;2.50
59179;PMS7003;44956;52.422;20.818;2023-04-15T16:38:47;4.50;3.00;1.00
59179;PMS7003;44956;52.422;20.818;2023-04-15T16:41:50;7.25;5.75;3.75
59179;PMS7003;44956;52.422;20.818;2023-04-15T16:44:53;6.75;6.75;3.00
59179;PMS7003;44956;52.422;20.818;2023-04-15T16:47:57;5.50;5.50;5.00
59179;PMS7003;44956;52.422;20.818;2023-04-15T16:51:01;6.00;6.00;3.50
59179;PMS7003;44956;52.422;20.818;2023-04-15T16:54:05;6.25;6.00;3.50
59179;PMS7003;44956;52.422;20.818;2023-04-15T16:57:09;8.00;8.00;5.00
59179;PMS7003;44956;52.422;20.818;2023-04-15T17:00:12;15.00;11.00;5.75
59179;PMS7003;44956;52.422;20.818;2023-04-15T17:03:16;7.50;6.75;5.00
59179;PMS7003;44956;52.422;20.818;2023-04-15T17:06:20;10.00;8.00;5.25
59179;PMS7003;44956;52.422;20.818;2023-04-15T17:09:23;5.25;5.25;2.00
59179;PMS7003;44956;52.422;20.818;2023-04-15T17:12:26;6.00;6.00;5.00
59179;PMS7003;44956;52.422;20.818;2023-04-15T17:15:29;7.50;6.00;5.00
59179;PMS7003;44956;52.422;20.818;2023-04-15T17:18:34;10.00;7.50;5.00